Дата Пункты Температура Давл., мм. Влажн., % Ветер Погодные явления
Воздуха Воды Направл. Скорость
27.10.18 03:00 Одесса 11.0 14.0 759 71 Пд 1 03 ГОДИНИ
26.10.18 09:00 Одесса 8.0 14.0 758 73 З 1 21 ГОДИНУ
26.10.18 06:00 Одесса 11.0 14.0 757 54 Пн-З 1 18 ГОДИН
26.10.18 03:00 Одесса 13.0 14.0 756 52 Пн-З 4 15 ГОДИН
26.10.18 12:00 Одесса 13.0 14.0 755 57 Пн-З 3 12 ЧАСОВ
26.10.18 09:00 Одесса 9.0 14.0 753 69 З 3 09 ЧАСОВ
26.10.18 06:00 Одесса 7.0 14.0 751 66 З 3 06 ЧАСОВ
26.10.18 03:00 Одесса 6.0 14.0 751 69 З 3 03 ЧАСА
25.10.18 09:00 Одесса 4.0 15.0 752 75 З 2 21 ЧАС
25.10.18 06:00 Одесса 8.0 14.0 752 62 Пн-З 2 18 ЧАСОВ
25.10.18 03:00 Одесса 9.0 14.0 751 63 Пн-З 1 15 ЧАСОВ
25.10.18 12:00 Одесса 8.0 15.0 750 67 Пн-З 4 12 ЧАСОВ
25.10.18 09:00 Одесса 6.0 15.0 748 79 Пн-З 3 09 ЧАСОВ
25.10.18 06:00 Одесса 6.0 15.0 746 78 Пн-З 4 06 ЧАСОВ
25.10.18 03:00 Одесса 5.0 15.0 746 81 Пн-З 5 03 ЧАСА
24.10.18 09:00 Одесса 9.0 15.0 743 69 Пн-З 3 21 ЧАС
24.10.18 06:00 Одесса 9.0 15.0 742 83 Пн-З 5 18 ЧАСОВ
24.10.18 03:00 Одесса 15.0 15.0 741 56 З 2 15 ЧАСОВ
24.10.18 12:00 Одесса 12.0 15.0 743 74 З 2 12 ЧАСОВ
24.10.18 09:00 Одесса 10.0 15.0 745 89 Пд-З 2 09 ЧАСОВ
Количество строк
1 2 3 4 5 6 7 8 9 10
Page 9 of 426